Downpatrick, United Kingdom
Current Conditions -  °F | °C
As of 8:20 PM on Friday 28 Nov 2014 (Local Time) from EGAC Reporting Station
Scattered Clouds Scattered Clouds  
Wind Chill: 50°   Ceiling: Unl
Heat Index: 50°   Visibility: 6mi
Dew Point: 46°   Wind: 12mph
Humidity: 87%   Direction: 80°E
Pressure: 29.77"   Gusts: NA
Location:  54.33°N, 5.7°W
Report Text: EGAC 282020Z 08010KT 9999 FEW008 SCT027 10/08 Q1008
Loading
Personal Weather Stations






























Interactive Weather Map New forecast layout! Learn more

10-Day Weather Forecast

Advertisements
Track Severe Weather on mobile